Time;durP1;ratioP1;P1;durP2;ratioP2;P2;SDS_P1;SDS_P2;PMS_P1;PMS_P2;Temp;Humidity;BMP_temperature;BMP_pressure;BME280_temperature;BME280_humidity;BME280_pressure;Samples;Min_cycle;Max_cycle;Signal;HPM_P1;HPM_P2
2023/03/22 00:02:11;;;;;;;10.82;6.68;;;10.80;99.90;;;;;;4769915;30;20498;-86
2023/03/22 00:04:37;;;;;;;12.75;6.50;;;9.90;99.90;;;;;;4763143;30;20046;-86
2023/03/22 00:07:02;;;;;;;14.93;7.35;;;9.90;99.90;;;;;;4777103;30;20062;-86
2023/03/22 00:09:28;;;;;;;9.45;5.75;;;10.00;99.90;;;;;;4767880;30;20463;-86
2023/03/22 00:11:54;;;;;;;10.25;6.05;;;10.00;99.90;;;;;;4762286;30;20087;-87
2023/03/22 00:14:20;;;;;;;10.45;5.50;;;10.00;99.90;;;;;;4769149;30;20058;-86
2023/03/22 00:16:47;;;;;;;12.07;4.93;;;10.00;99.90;;;;;;4769798;30;20474;-86
2023/03/22 00:19:14;;;;;;;8.85;4.15;;;9.90;99.90;;;;;;4766447;30;20055;-86
2023/03/22 00:21:40;;;;;;;7.00;3.55;;;10.00;99.90;;;;;;4775116;30;20055;-87
2023/03/22 00:24:06;;;;;;;8.95;4.15;;;9.90;99.90;;;;;;4760552;30;20050;-86
2023/03/22 00:26:32;;;;;;;8.82;3.90;;;9.90;99.90;;;;;;4756009;30;20402;-87
2023/03/22 00:28:58;;;;;;;9.93;3.58;;;9.90;99.90;;;;;;4761081;30;20063;-87
2023/03/22 00:31:23;;;;;;;13.15;4.55;;;9.90;99.90;;;;;;4772820;30;20043;-86
2023/03/22 00:33:49;;;;;;;13.50;4.47;;;9.90;99.90;;;;;;4758775;30;20055;-87
2023/03/22 00:36:15;;;;;;;15.38;3.88;;;9.90;99.90;;;;;;4772239;30;20082;-87
2023/03/22 00:38:41;;;;;;;8.38;3.50;;;9.90;99.90;;;;;;4764182;30;20055;-87
2023/03/22 00:41:16;;;;;;;8.93;3.45;;;9.90;99.90;;;;;;4758782;30;20055;-86
2023/03/22 00:43:46;;;;;;;7.70;3.67;;;9.80;99.90;;;;;;4768852;30;20069;-87
2023/03/22 00:46:14;;;;;;;9.27;2.90;;;9.80;99.90;;;;;;4759954;30;20075;-88
2023/03/22 00:48:40;;;;;;;11.85;2.70;;;9.80;99.90;;;;;;4764136;30;20047;-87
2023/03/22 00:51:06;;;;;;;9.73;2.85;;;10.00;99.90;;;;;;4766974;29;20074;-87
2023/03/22 00:53:34;;;;;;;7.10;2.78;;;9.90;99.90;;;;;;4771241;30;20173;-86
2023/03/22 00:55:59;;;;;;;6.28;1.98;;;9.80;99.90;;;;;;4751768;30;20051;-86
2023/03/22 00:58:25;;;;;;;10.95;2.65;;;10.90;99.90;;;;;;4760578;30;20040;-87
2023/03/22 01:00:51;;;;;;;6.18;2.50;;;9.90;99.90;;;;;;4767772;30;20083;-87
2023/03/22 01:03:17;;;;;;;7.43;2.45;;;9.80;99.90;;;;;;4746004;30;20052;-86
2023/03/22 01:05:48;;;;;;;5.43;1.98;;;10.20;99.90;;;;;;4755680;30;20061;-87
2023/03/22 01:08:14;;;;;;;11.27;2.20;;;9.80;99.90;;;;;;4760703;30;20058;-87
2023/03/22 01:10:41;;;;;;;8.23;2.75;;;9.70;99.90;;;;;;4771732;30;20047;-86
2023/03/22 01:13:07;;;;;;;7.20;1.98;;;9.80;99.90;;;;;;4766518;30;20062;-86
2023/03/22 01:15:33;;;;;;;9.02;2.30;;;10.50;99.90;;;;;;4774709;30;20097;-86
2023/03/22 01:18:00;;;;;;;4.43;1.98;;;10.10;99.90;;;;;;4779248;30;20114;-87
2023/03/22 01:20:28;;;;;;;7.75;1.48;;;9.80;99.90;;;;;;4762522;30;20043;-87
2023/03/22 01:22:54;;;;;;;7.63;1.63;;;9.70;99.90;;;;;;4779191;30;20051;-87
2023/03/22 01:25:20;;;;;;;10.68;1.70;;;9.70;99.90;;;;;;4777026;30;20047;-87
2023/03/22 01:27:46;;;;;;;8.23;1.50;;;9.70;99.90;;;;;;4775426;30;20518;-87
2023/03/22 01:30:12;;;;;;;3.40;1.13;;;10.30;99.90;;;;;;4771117;30;20058;-87
2023/03/22 01:32:38;;;;;;;4.75;1.45;;;9.70;99.90;;;;;;4780526;30;20052;-87
2023/03/22 01:35:05;;;;;;;3.72;1.20;;;10.00;99.90;;;;;;4755123;30;20045;-87
2023/03/22 01:37:31;;;;;;;2.78;1.10;;;9.70;99.90;;;;;;4762280;30;20047;-89
2023/03/22 01:39:57;;;;;;;2.50;0.90;;;9.60;99.90;;;;;;4778029;29;20567;-88
2023/03/22 01:42:24;;;;;;;5.65;1.17;;;9.60;99.90;;;;;;4758602;30;20076;-89
2023/03/22 01:45:30;;;;;;;3.22;1.10;;;9.80;99.90;;;;;;4776339;30;20059;-87
2023/03/22 01:48:01;;;;;;;4.03;1.17;;;9.60;99.90;;;;;;4710692;30;20075;-88
2023/03/22 01:50:27;;;;;;;3.58;1.00;;;9.60;99.90;;;;;;4703450;30;20179;-88
2023/03/22 01:52:55;;;;;;;5.15;1.10;;;9.10;99.90;;;;;;4706629;30;20049;-88
2023/03/22 01:55:24;;;;;;;5.85;1.65;;;9.60;99.90;;;;;;4726134;30;20052;-87
2023/03/22 01:57:51;;;;;;;3.45;1.05;;;9.60;99.90;;;;;;4715977;30;20069;-88
2023/03/22 02:00:19;;;;;;;3.85;1.02;;;9.50;99.90;;;;;;4725999;30;20228;-87
2023/03/22 02:02:48;;;;;;;5.72;1.10;;;9.50;99.90;;;;;;4704935;30;20056;-88
2023/03/22 02:05:14;;;;;;;13.50;1.42;;;9.50;99.90;;;;;;4717347;30;20091;-87
2023/03/22 02:07:41;;;;;;;3.53;1.00;;;9.50;99.90;;;;;;4709034;30;20049;-87
2023/03/22 02:10:21;;;;;;;4.15;0.95;;;9.50;99.90;;;;;;4703342;30;20057;-87
2023/03/22 02:12:58;;;;;;;2.83;1.00;;;9.50;99.90;;;;;;4725214;30;20411;-89
2023/03/22 02:15:34;;;;;;;5.10;0.75;;;9.50;99.90;;;;;;4716795;30;20057;-87
2023/03/22 02:18:50;;;;;;;4.28;0.82;;;9.50;99.90;;;;;;4736230;30;20055;-87
2023/03/22 02:21:55;;;;;;;3.92;0.93;;;9.40;99.90;;;;;;4715618;30;20474;-87
2023/03/22 02:24:59;;;;;;;2.90;0.52;;;9.50;99.90;;;;;;4681453;30;20120;-87
2023/03/22 02:27:51;;;;;;;2.88;0.80;;;9.40;99.90;;;;;;4661493;30;20049;-87
2023/03/22 02:30:48;;;;;;;4.88;1.15;;;9.40;99.90;;;;;;4673368;30;20132;-86
2023/03/22 02:33:40;;;;;;;5.82;0.73;;;9.40;99.90;;;;;;4593234;31;20075;-87
2023/03/22 02:36:23;;;;;;;1.95;0.50;;;9.30;99.90;;;;;;4627508;30;20063;-87
2023/03/22 02:39:13;;;;;;;4.03;0.70;;;9.30;99.90;;;;;;4614444;31;20055;-88
2023/03/22 02:42:06;;;;;;;2.00;0.50;;;9.40;99.90;;;;;;4615583;31;20546;-88
2023/03/22 02:44:59;;;;;;;4.97;0.80;;;9.40;99.90;;;;;;4629322;30;20081;-88
2023/03/22 02:47:38;;;;;;;6.72;0.50;;;9.40;99.90;;;;;;4614330;30;20059;-88
2023/03/22 02:50:21;;;;;;;2.53;0.43;;;9.50;99.90;;;;;;4615262;31;20072;-88
2023/03/22 02:52:51;;;;;;;6.05;0.60;;;9.40;99.90;;;;;;4622445;30;20080;-87
2023/03/22 02:55:27;;;;;;;2.22;0.60;;;9.40;99.90;;;;;;4613468;30;20067;-88
2023/03/22 02:58:03;;;;;;;4.38;0.70;;;9.40;99.90;;;;;;4645769;30;20062;-88
2023/03/22 03:00:31;;;;;;;2.50;0.60;;;9.40;99.90;;;;;;4663911;30;20058;-88
2023/03/22 03:03:10;;;;;;;5.75;0.85;;;9.40;99.90;;;;;;4683448;30;20131;-88
2023/03/22 03:05:57;;;;;;;6.32;0.70;;;9.70;99.90;;;;;;4697427;30;20467;-88
2023/03/22 03:08:24;;;;;;;4.00;0.57;;;9.40;99.90;;;;;;4697358;30;20102;-88
2023/03/22 03:10:53;;;;;;;5.85;0.93;;;9.40;99.90;;;;;;4777141;30;20067;-88
2023/03/22 03:13:19;;;;;;;2.40;0.70;;;9.60;99.90;;;;;;4767404;30;20482;-88
2023/03/22 03:15:52;;;;;;;3.88;0.60;;;9.20;99.90;;;;;;4760021;30;20091;-88
2023/03/22 03:18:33;;;;;;;2.92;0.52;;;9.50;99.90;;;;;;4760595;30;20052;-89
2023/03/22 03:21:31;;;;;;;3.20;1.00;;;10.00;99.90;;;;;;4769781;30;20056;-88
2023/03/22 03:24:32;;;;;;;3.17;0.65;;;9.50;99.90;;;;;;4763951;30;20060;-88
2023/03/22 03:27:15;;;;;;;3.22;0.60;;;9.50;99.90;;;;;;4754272;30;20116;-88
2023/03/22 03:29:49;;;;;;;3.75;0.43;;;9.70;99.90;;;;;;4739506;30;20036;-88
2023/03/22 03:32:18;;;;;;;2.38;0.40;;;9.40;99.90;;;;;;4769389;30;20131;-87
2023/03/22 03:34:56;;;;;;;5.47;0.93;;;9.50;99.90;;;;;;4763867;30;20047;-88
2023/03/22 03:37:28;;;;;;;5.97;0.65;;;9.50;99.90;;;;;;4760338;30;20047;-88
2023/03/22 03:40:05;;;;;;;3.55;0.90;;;9.50;99.90;;;;;;4762875;30;20062;-89
2023/03/22 03:42:32;;;;;;;3.13;0.60;;;9.50;99.90;;;;;;4767590;30;20061;-87
2023/03/22 03:44:59;;;;;;;5.15;0.90;;;9.50;99.90;;;;;;4764392;30;20055;-88
2023/03/22 03:47:28;;;;;;;5.88;0.70;;;9.50;99.90;;;;;;4772038;30;20079;-88
2023/03/22 03:49:54;;;;;;;5.43;0.68;;;9.80;99.90;;;;;;4742531;30;20055;-88
2023/03/22 03:52:23;;;;;;;4.68;0.60;;;9.50;99.90;;;;;;4772404;30;20071;-87
2023/03/22 03:54:49;;;;;;;3.70;0.40;;;9.70;99.90;;;;;;4769636;30;20092;-88
2023/03/22 03:57:15;;;;;;;4.97;0.85;;;9.90;99.90;;;;;;4759982;30;20055;-88
2023/03/22 03:59:41;;;;;;;5.72;0.90;;;9.90;99.90;;;;;;4759500;30;20142;-89
2023/03/22 04:02:07;;;;;;;3.28;0.90;;;9.40;99.90;;;;;;4777361;29;20475;-88
2023/03/22 04:04:33;;;;;;;4.72;0.77;;;9.70;99.90;;;;;;4773312;30;20047;-87
2023/03/22 04:07:01;;;;;;;3.67;0.68;;;9.60;99.90;;;;;;4773415;30;20087;-88
2023/03/22 04:09:30;;;;;;;3.38;0.88;;;9.90;99.90;;;;;;4780088;30;20044;-89
2023/03/22 04:11:56;;;;;;;3.92;0.60;;;9.60;99.90;;;;;;4760663;30;20047;-88
2023/03/22 04:14:23;;;;;;;2.10;0.63;;;10.00;99.90;;;;;;4772717;30;20051;-87
2023/03/22 04:16:49;;;;;;;4.55;0.60;;;9.50;99.90;;;;;;4780588;30;20068;-89
2023/03/22 04:19:15;;;;;;;2.03;0.50;;;9.50;99.90;;;;;;4754018;30;20055;-87
2023/03/22 04:21:41;;;;;;;1.88;0.52;;;9.40;99.90;;;;;;4772034;30;20387;-88
2023/03/22 04:24:07;;;;;;;1.73;0.50;;;9.40;99.90;;;;;;4772639;30;20097;-88
2023/03/22 04:26:33;;;;;;;1.23;0.60;;;9.40;99.90;;;;;;4762976;30;20058;-88
2023/03/22 04:29:01;;;;;;;3.72;0.60;;;9.40;99.90;;;;;;4766617;30;20055;-87
2023/03/22 04:31:30;;;;;;;4.65;0.70;;;9.40;99.90;;;;;;4775548;30;20051;-88
2023/03/22 04:33:56;;;;;;;3.63;0.60;;;9.60;99.90;;;;;;4764126;30;20051;-87
2023/03/22 04:36:23;;;;;;;3.25;0.80;;;9.30;99.90;;;;;;4763430;30;20059;-88
2023/03/22 04:38:50;;;;;;;3.00;0.60;;;9.40;99.90;;;;;;4762525;30;20079;-88
2023/03/22 04:41:17;;;;;;;1.77;0.60;;;9.30;99.90;;;;;;4741676;30;20083;-88
2023/03/22 04:43:45;;;;;;;2.97;0.50;;;9.80;99.90;;;;;;4772262;30;20095;-87
2023/03/22 04:46:12;;;;;;;7.13;0.90;;;9.30;99.90;;;;;;4763170;30;20113;-88
2023/03/22 04:48:40;;;;;;;5.88;0.68;;;9.30;99.90;;;;;;4748538;30;20135;-88
2023/03/22 04:51:07;;;;;;;2.80;0.75;;;9.40;99.90;;;;;;4765514;30;20167;-88
2023/03/22 04:53:37;;;;;;;3.17;0.70;;;9.40;99.90;;;;;;4768862;30;20064;-88
2023/03/22 04:56:09;;;;;;;3.42;0.95;;;10.50;99.90;;;;;;4770605;30;20059;-88
2023/03/22 04:58:43;;;;;;;6.03;1.10;;;9.40;99.90;;;;;;4769733;30;20130;-88
2023/03/22 05:01:11;;;;;;;3.47;1.48;;;9.30;99.90;;;;;;4777722;30;20112;-87
2023/03/22 05:03:36;;;;;;;4.70;1.17;;;9.40;99.90;;;;;;4771949;30;20406;-88
2023/03/22 05:06:05;;;;;;;7.53;1.50;;;9.40;99.90;;;;;;4755576;30;20084;-87
2023/03/22 05:08:31;;;;;;;4.18;1.40;;;9.40;99.90;;;;;;4768869;30;20418;-88
2023/03/22 05:11:02;;;;;;;4.38;1.95;;;9.50;99.90;;;;;;4772774;30;20048;-88
2023/03/22 05:13:28;;;;;;;7.25;1.70;;;9.60;99.90;;;;;;4752248;30;20055;-87
2023/03/22 05:15:54;;;;;;;7.88;2.30;;;10.40;99.90;;;;;;4774430;30;20051;-87
2023/03/22 05:18:25;;;;;;;5.22;2.47;;;9.50;99.90;;;;;;4756088;30;20036;-88
2023/03/22 05:20:53;;;;;;;6.28;2.13;;;9.50;99.90;;;;;;4772039;30;20108;-88
2023/03/22 05:23:20;;;;;;;6.35;2.15;;;9.50;99.90;;;;;;4772234;30;20096;-87
2023/03/22 05:25:50;;;;;;;7.28;2.03;;;9.50;99.90;;;;;;4772610;30;20116;-88
2023/03/22 05:28:21;;;;;;;5.18;2.17;;;10.00;99.90;;;;;;4764671;30;20158;-87
2023/03/22 05:30:48;;;;;;;6.72;1.70;;;9.20;99.90;;;;;;4771882;30;20107;-88
2023/03/22 05:33:23;;;;;;;4.88;1.83;;;9.60;99.90;;;;;;4769950;30;20059;-87
2023/03/22 05:35:49;;;;;;;9.18;2.70;;;9.20;99.90;;;;;;4771295;30;20048;-85
2023/03/22 05:38:15;;;;;;;6.78;2.58;;;9.70;99.90;;;;;;4769818;30;20406;-89
2023/03/22 05:40:42;;;;;;;9.52;2.70;;;9.60;99.90;;;;;;4763261;30;20039;-89
2023/03/22 05:43:08;;;;;;;6.80;2.28;;;9.60;99.90;;;;;;4758277;30;20086;-87
2023/03/22 05:45:38;;;;;;;8.02;3.20;;;9.60;99.90;;;;;;4761395;30;20081;-86
2023/03/22 05:48:04;;;;;;;6.22;3.22;;;9.80;99.90;;;;;;4771629;30;20422;-87
2023/03/22 05:50:30;;;;;;;6.70;2.75;;;9.80;99.90;;;;;;4767096;30;20452;-87
2023/03/22 05:52:56;;;;;;;7.47;3.92;;;9.80;99.90;;;;;;4765453;30;20087;-87
2023/03/22 05:55:22;;;;;;;9.02;4.00;;;9.80;99.90;;;;;;4768908;30;20147;-88
2023/03/22 05:57:50;;;;;;;7.57;3.70;;;9.80;99.90;;;;;;4760696;30;20047;-87
2023/03/22 06:00:17;;;;;;;9.77;3.53;;;9.90;99.90;;;;;;4780136;30;20051;-87
2023/03/22 06:02:45;;;;;;;8.80;3.58;;;9.90;99.90;;;;;;4768479;30;20144;-88
2023/03/22 06:05:12;;;;;;;10.00;4.22;;;10.30;99.90;;;;;;4773413;30;20144;-86
2023/03/22 06:07:39;;;;;;;12.82;4.30;;;9.90;99.90;;;;;;4758200;30;20111;-87
2023/03/22 06:10:07;;;;;;;10.60;4.18;;;10.00;99.90;;;;;;4763747;30;20497;-87
2023/03/22 06:12:33;;;;;;;9.90;4.13;;;9.90;99.90;;;;;;4781206;30;20515;-87
2023/03/22 06:14:59;;;;;;;10.98;4.10;;;9.90;99.90;;;;;;4761670;30;20061;-86
2023/03/22 06:17:25;;;;;;;7.47;3.90;;;10.20;99.90;;;;;;4750661;30;20047;-88
2023/03/22 06:19:53;;;;;;;10.43;5.10;;;10.10;99.90;;;;;;4759983;30;20134;-89
2023/03/22 06:22:19;;;;;;;8.52;3.78;;;10.10;99.90;;;;;;4783487;30;20134;-87
2023/03/22 06:24:45;;;;;;;8.32;3.85;;;10.80;99.90;;;;;;4785243;30;20043;-89
2023/03/22 06:27:10;;;;;;;10.05;4.10;;;10.00;99.90;;;;;;4767768;30;20127;-87
2023/03/22 06:29:36;;;;;;;11.20;4.30;;;10.00;99.90;;;;;;4769236;30;20104;-87
2023/03/22 06:32:03;;;;;;;7.75;3.50;;;10.10;99.90;;;;;;4764115;30;20055;-87
2023/03/22 06:34:29;;;;;;;7.80;3.53;;;10.10;99.90;;;;;;4772033;30;20055;-87
2023/03/22 06:36:55;;;;;;;10.50;4.10;;;10.10;99.90;;;;;;4773734;30;20048;-87
2023/03/22 06:39:21;;;;;;;8.30;4.68;;;10.10;99.90;;;;;;4764248;30;20524;-90
2023/03/22 06:41:48;;;;;;;9.15;3.78;;;10.30;99.90;;;;;;4778204;30;20122;-87
2023/03/22 06:44:15;;;;;;;10.45;4.07;;;10.10;99.90;;;;;;4750775;30;20398;-87
2023/03/22 06:46:41;;;;;;;10.32;4.43;;;10.10;99.90;;;;;;4770568;30;20043;-87
2023/03/22 06:49:06;;;;;;;11.10;5.03;;;10.10;99.90;;;;;;4780810;30;20401;-89
2023/03/22 06:51:33;;;;;;;11.52;4.70;;;10.20;99.90;;;;;;4770406;29;20040;-88
2023/03/22 06:53:59;;;;;;;12.98;4.18;;;10.20;99.90;;;;;;4771734;30;20056;-87
2023/03/22 06:56:25;;;;;;;13.25;4.25;;;10.20;99.90;;;;;;4763540;30;20075;-87
2023/03/22 06:58:53;;;;;;;13.98;5.00;;;10.20;99.90;;;;;;4761797;30;20128;-88
2023/03/22 07:01:22;;;;;;;10.18;4.53;;;10.20;99.90;;;;;;4762309;30;20044;-89
2023/03/22 07:03:47;;;;;;;10.20;4.22;;;10.20;99.90;;;;;;4753322;30;20467;-88
2023/03/22 07:06:13;;;;;;;10.82;5.07;;;10.30;99.90;;;;;;4758224;30;20104;-87
2023/03/22 07:08:39;;;;;;;10.10;4.47;;;10.30;99.90;;;;;;4779091;30;20130;-88
2023/03/22 07:11:05;;;;;;;8.98;5.38;;;10.40;99.90;;;;;;4764568;30;20071;-88
2023/03/22 07:13:31;;;;;;;7.40;3.85;;;10.40;99.90;;;;;;4769837;30;20139;-88
2023/03/22 07:15:59;;;;;;;9.25;4.45;;;10.40;99.90;;;;;;4779378;30;20059;-87
2023/03/22 07:18:25;;;;;;;9.15;4.72;;;10.40;99.90;;;;;;4780865;30;20086;-87
2023/03/22 07:20:51;;;;;;;11.43;5.03;;;10.50;99.90;;;;;;4768778;30;20059;-87
2023/03/22 07:23:19;;;;;;;11.95;5.20;;;10.60;99.90;;;;;;4758487;30;20051;-86
2023/03/22 07:25:46;;;;;;;10.98;5.47;;;10.50;99.90;;;;;;4769559;30;20410;-87
2023/03/22 07:28:12;;;;;;;10.55;5.20;;;10.60;99.90;;;;;;4772294;30;20044;-86
2023/03/22 07:30:39;;;;;;;8.85;4.35;;;10.60;99.90;;;;;;4775683;30;20048;-87
2023/03/22 07:33:07;;;;;;;14.10;4.43;;;10.60;99.90;;;;;;4767009;30;20043;-87
2023/03/22 07:35:36;;;;;;;8.20;4.88;;;10.20;99.90;;;;;;4765714;30;20050;-91
2023/03/22 07:38:03;;;;;;;9.70;4.88;;;10.70;99.90;;;;;;4770366;30;20055;-88
2023/03/22 07:40:29;;;;;;;10.68;4.40;;;10.70;99.90;;;;;;4743788;30;20048;-87
2023/03/22 07:42:55;;;;;;;9.82;5.03;;;10.70;99.90;;;;;;4769593;30;20508;-86
2023/03/22 07:45:21;;;;;;;8.38;4.85;;;10.70;99.90;;;;;;4764356;30;20122;-86
2023/03/22 07:47:48;;;;;;;10.57;4.22;;;10.70;99.90;;;;;;4773299;30;20529;-85
2023/03/22 07:50:14;;;;;;;5.88;3.80;;;10.70;99.90;;;;;;4763243;30;20047;-84
2023/03/22 07:52:40;;;;;;;9.13;4.57;;;10.70;99.90;;;;;;4757481;30;20649;-86
2023/03/22 07:55:07;;;;;;;9.27;3.72;;;10.80;99.90;;;;;;4775864;30;20116;-84
2023/03/22 07:57:32;;;;;;;7.57;4.25;;;10.80;99.90;;;;;;4770337;30;20044;-84
2023/03/22 07:59:58;;;;;;;7.70;3.72;;;10.80;99.90;;;;;;4760759;30;20066;-84
2023/03/22 08:02:24;;;;;;;7.00;3.47;;;11.00;99.90;;;;;;4769256;30;20036;-85
2023/03/22 08:04:51;;;;;;;9.57;3.88;;;10.80;99.90;;;;;;4769474;30;20062;-83
2023/03/22 08:07:19;;;;;;;10.02;3.97;;;11.30;99.90;;;;;;4754694;30;20395;-85
2023/03/22 08:09:45;;;;;;;11.45;3.70;;;10.90;99.90;;;;;;4769421;30;20044;-84
2023/03/22 08:12:11;;;;;;;11.52;4.70;;;11.00;99.90;;;;;;4770668;30;20058;-84
2023/03/22 08:14:37;;;;;;;13.77;3.85;;;11.20;99.90;;;;;;4775945;30;20048;-86
2023/03/22 08:17:05;;;;;;;8.43;3.78;;;11.20;99.90;;;;;;4767077;30;20112;-85
2023/03/22 08:19:32;;;;;;;9.18;3.80;;;11.30;99.90;;;;;;4764007;30;20055;-85
2023/03/22 08:21:58;;;;;;;10.43;4.47;;;11.20;99.90;;;;;;4772559;30;20105;-84
2023/03/22 08:24:25;;;;;;;10.82;4.25;;;11.30;99.90;;;;;;4773073;30;20497;-85
2023/03/22 08:26:50;;;;;;;8.15;3.38;;;11.50;99.90;;;;;;4773539;30;20395;-86
2023/03/22 08:29:17;;;;;;;10.80;3.78;;;11.40;99.90;;;;;;4768712;30;20058;-85
2023/03/22 08:31:43;;;;;;;7.53;3.00;;;11.60;99.90;;;;;;4746309;30;20039;-85
2023/03/22 08:34:09;;;;;;;8.05;3.38;;;11.50;99.90;;;;;;4779284;30;20513;-84
2023/03/22 08:36:36;;;;;;;7.50;2.97;;;11.50;99.90;;;;;;4787629;30;20051;-84
2023/03/22 08:39:03;;;;;;;6.75;3.25;;;11.50;99.90;;;;;;4770007;30;20054;-84
2023/03/22 08:41:28;;;;;;;9.02;3.35;;;11.60;99.90;;;;;;4769788;30;20091;-84
2023/03/22 08:43:54;;;;;;;8.65;2.53;;;11.70;99.90;;;;;;4770067;30;20044;-85
2023/03/22 08:46:20;;;;;;;10.52;3.50;;;11.60;99.90;;;;;;4754142;30;20090;-86
2023/03/22 08:48:49;;;;;;;9.10;3.22;;;12.00;99.90;;;;;;4754324;30;20482;-89
2023/03/22 08:51:20;;;;;;;5.55;3.17;;;11.70;99.90;;;;;;4766215;29;20122;-87
2023/03/22 08:53:47;;;;;;;6.10;2.75;;;11.80;99.90;;;;;;4760150;30;20413;-90
2023/03/22 08:56:15;;;;;;;9.40;2.58;;;11.80;99.90;;;;;;4789316;30;20142;-87
2023/03/22 08:58:45;;;;;;;8.15;2.60;;;11.80;99.90;;;;;;4790403;30;20112;-85
2023/03/22 09:01:16;;;;;;;8.02;2.50;;;11.80;99.90;;;;;;4752650;30;20126;-84
2023/03/22 09:03:42;;;;;;;7.32;2.47;;;11.80;99.90;;;;;;4756443;30;20110;-89
2023/03/22 09:06:09;;;;;;;14.88;3.38;;;11.80;99.90;;;;;;4741939;30;20055;-89
2023/03/22 09:08:35;;;;;;;7.03;3.97;;;11.90;99.90;;;;;;4772151;30;20082;-86
2023/03/22 09:11:03;;;;;;;8.85;2.22;;;11.90;99.90;;;;;;4772922;30;20059;-87
2023/03/22 09:13:32;;;;;;;12.75;2.55;;;11.90;99.90;;;;;;4756616;30;20047;-86
2023/03/22 09:15:58;;;;;;;7.68;2.50;;;11.90;99.90;;;;;;4756707;30;20059;-86
2023/03/22 09:18:24;;;;;;;8.38;2.08;;;11.90;99.90;;;;;;4772735;30;20055;-87
2023/03/22 09:20:50;;;;;;;6.55;2.20;;;11.90;99.90;;;;;;4772462;30;20098;-87
2023/03/22 09:23:16;;;;;;;9.60;2.50;;;11.90;99.90;;;;;;4756298;30;20052;-87
2023/03/22 09:25:43;;;;;;;8.65;2.40;;;11.90;99.90;;;;;;4772674;30;20421;-87
2023/03/22 09:28:09;;;;;;;6.93;1.80;;;11.90;99.90;;;;;;4755994;30;20130;-86
2023/03/22 09:30:36;;;;;;;6.82;2.35;;;11.90;99.90;;;;;;4756497;30;20139;-87
2023/03/22 09:33:02;;;;;;;4.40;1.98;;;11.80;99.90;;;;;;4772324;30;20052;-87
2023/03/22 09:35:28;;;;;;;5.28;1.90;;;12.00;99.90;;;;;;4755939;30;20054;-86
2023/03/22 09:37:54;;;;;;;3.70;2.08;;;12.00;99.90;;;;;;4772551;30;20103;-86
2023/03/22 09:40:27;;;;;;;6.22;3.20;;;12.00;99.90;;;;;;4742357;30;20159;-88
2023/03/22 09:42:56;;;;;;;4.65;2.10;;;12.00;99.90;;;;;;4757015;30;20052;-86
2023/03/22 09:45:34;;;;;;;5.40;1.80;;;12.10;99.90;;;;;;4772838;30;20056;-87
2023/03/22 09:48:02;;;;;;;6.72;1.92;;;12.00;99.90;;;;;;4757444;30;20557;-87
2023/03/22 09:50:31;;;;;;;5.53;1.90;;;11.90;99.90;;;;;;4757078;30;20055;-86
2023/03/22 09:52:58;;;;;;;5.32;1.30;;;11.80;99.90;;;;;;4773724;30;20056;-87
2023/03/22 09:55:36;;;;;;;9.90;1.98;;;11.70;99.90;;;;;;4773520;30;20139;-88
2023/03/22 09:58:25;;;;;;;5.53;2.00;;;11.70;99.90;;;;;;4775771;30;20063;-86
2023/03/22 10:01:01;;;;;;;5.15;1.85;;;11.60;99.90;;;;;;4756384;30;20052;-86
2023/03/22 10:04:04;;;;;;;7.50;2.17;;;11.60;99.90;;;;;;4771470;30;20066;-86
2023/03/22 10:06:30;;;;;;;5.95;1.70;;;11.50;99.90;;;;;;4702290;30;20057;-87
2023/03/22 10:09:13;;;;;;;6.10;1.42;;;11.50;99.90;;;;;;4716892;30;20565;-86
2023/03/22 10:11:50;;;;;;;10.45;2.20;;;11.40;99.90;;;;;;4716246;30;20500;-86
2023/03/22 10:14:27;;;;;;;9.05;2.28;;;11.40;99.90;;;;;;4716520;30;20462;-86
2023/03/22 10:16:55;;;;;;;4.60;1.15;;;11.30;99.90;;;;;;4702400;30;20110;-86
2023/03/22 10:19:34;;;;;;;6.45;1.77;;;11.60;99.90;;;;;;4702149;30;20431;-86
2023/03/22 10:22:02;;;;;;;5.97;1.20;;;11.20;99.90;;;;;;4716658;30;20057;-86
2023/03/22 10:24:35;;;;;;;9.90;1.98;;;11.20;99.90;;;;;;4716688;30;20424;-87
2023/03/22 10:27:01;;;;;;;4.45;1.42;;;11.10;99.90;;;;;;4701891;30;20045;-87
2023/03/22 10:29:38;;;;;;;5.78;1.60;;;11.10;99.90;;;;;;4716124;30;20216;-86
2023/03/22 10:32:21;;;;;;;3.75;1.38;;;11.10;99.90;;;;;;4716161;30;20053;-86
2023/03/22 10:34:48;;;;;;;4.43;1.23;;;11.00;99.90;;;;;;4716356;30;20141;-86
2023/03/22 10:37:16;;;;;;;3.95;1.73;;;11.00;99.90;;;;;;4717745;30;20065;-86
2023/03/22 10:39:49;;;;;;;2.63;1.38;;;11.00;99.90;;;;;;4717340;30;20061;-86
2023/03/22 10:42:24;;;;;;;4.55;1.30;;;11.00;99.90;;;;;;4715657;30;20075;-86
2023/03/22 10:45:21;;;;;;;3.17;1.83;;;11.00;99.90;;;;;;4754925;30;20422;-86
2023/03/22 10:47:56;;;;;;;2.97;1.42;;;10.90;99.90;;;;;;4754654;30;20095;-86
2023/03/22 10:50:27;;;;;;;;;;;10.90;99.90;;;;;;4771531;30;20475;-86
2023/03/22 10:53:03;;;;;;;6.20;1.40;;;10.80;99.90;;;;;;4755507;30;20354;-86
2023/03/22 10:55:29;;;;;;;5.65;1.52;;;10.70;99.90;;;;;;4754762;30;20502;-87
2023/03/22 10:58:16;;;;;;;5.60;1.52;;;10.70;99.90;;;;;;4770831;30;20047;-87
2023/03/22 11:00:53;;;;;;;4.22;1.70;;;10.70;99.90;;;;;;4753912;30;20131;-86
2023/03/22 11:03:36;;;;;;;3.65;1.50;;;10.60;99.90;;;;;;4754844;30;20083;-85
2023/03/22 11:06:26;;;;;;;5.53;1.58;;;10.60;99.90;;;;;;4753365;30;20126;-86
2023/03/22 11:08:57;;;;;;;3.75;1.48;;;10.60;99.90;;;;;;4760625;30;20506;-89
2023/03/22 11:11:26;;;;;;;6.20;1.35;;;10.60;99.90;;;;;;4759323;30;20044;-87
2023/03/22 11:13:57;;;;;;;4.07;1.40;;;10.60;99.90;;;;;;4772149;30;20456;-87
2023/03/22 11:16:22;;;;;;;5.63;1.58;;;10.70;99.90;;;;;;4775262;30;20051;-83
2023/03/22 11:18:48;;;;;;;6.97;1.60;;;10.70;99.90;;;;;;4757291;30;20051;-84
2023/03/22 11:21:16;;;;;;;4.50;1.50;;;10.90;99.90;;;;;;4761138;30;20078;-87
2023/03/22 11:23:51;;;;;;;6.60;1.90;;;10.70;99.90;;;;;;4776089;30;20060;-83
2023/03/22 11:26:28;;;;;;;5.60;1.33;;;10.70;99.90;;;;;;4761013;30;20089;-82
2023/03/22 11:29:20;;;;;;;6.13;1.42;;;10.70;99.90;;;;;;4769962;30;20062;-84
2023/03/22 11:31:56;;;;;;;2.88;1.20;;;10.70;99.90;;;;;;4750842;30;20402;-84
2023/03/22 11:34:25;;;;;;;3.97;1.95;;;10.70;99.90;;;;;;4770185;30;20052;-85
2023/03/22 11:36:55;;;;;;;3.38;1.67;;;10.70;99.90;;;;;;4766190;30;20062;-84
2023/03/22 11:39:29;;;;;;;7.93;1.20;;;10.80;99.90;;;;;;4771873;30;20109;-84
2023/03/22 11:42:00;;;;;;;3.10;1.30;;;10.70;99.90;;;;;;4758053;30;20151;-85
2023/03/22 11:44:30;;;;;;;4.82;1.80;;;10.70;99.90;;;;;;4745961;30;20047;-85
2023/03/22 11:46:59;;;;;;;5.30;1.38;;;10.90;99.90;;;;;;4765266;30;20066;-82
2023/03/22 11:49:45;;;;;;;7.05;1.42;;;10.80;99.90;;;;;;4775957;30;20051;-85
2023/03/22 11:52:25;;;;;;;7.30;1.50;;;10.80;99.90;;;;;;4773481;30;20052;-84
2023/03/22 11:54:53;;;;;;;6.28;1.42;;;10.70;99.90;;;;;;4762939;30;20130;-85
2023/03/22 11:57:29;;;;;;;3.80;1.20;;;11.00;99.90;;;;;;4775164;30;20082;-84
2023/03/22 12:00:06;;;;;;;;;;;10.80;99.90;;;;;;4767524;30;20059;-84
2023/03/22 12:02:54;;;;;;;3.20;1.50;;;10.80;99.90;;;;;;4777233;30;19926;-83
2023/03/22 12:05:26;;;;;;;3.65;1.40;;;10.80;99.90;;;;;;4751046;30;20052;-82
2023/03/22 12:08:10;;;;;;;3.97;1.40;;;10.80;99.90;;;;;;4776027;30;20501;-84
2023/03/22 12:10:43;;;;;;;4.50;1.23;;;10.80;99.90;;;;;;4769369;30;20059;-83
2023/03/22 12:13:17;;;;;;;2.72;1.50;;;10.70;99.90;;;;;;4753505;30;20040;-84
2023/03/22 12:15:51;;;;;;;3.65;1.70;;;10.70;99.90;;;;;;4769319;30;20087;-85
2023/03/22 12:18:21;;;;;;;5.32;1.30;;;10.90;99.90;;;;;;4762786;30;20044;-84
2023/03/22 12:21:09;;;;;;;2.08;1.33;;;10.70;99.90;;;;;;4776302;30;20413;-84
2023/03/22 12:23:35;;;;;;;2.72;1.30;;;11.10;99.90;;;;;;4770539;30;20047;-84
2023/03/22 12:26:16;;;;;;;5.63;1.20;;;10.90;99.90;;;;;;4763972;30;20081;-86
2023/03/22 12:28:57;;;;;;;2.45;1.00;;;10.90;99.90;;;;;;4772578;30;20052;-85
2023/03/22 12:31:29;;;;;;;4.05;1.35;;;10.60;99.90;;;;;;4763999;30;20055;-85
2023/03/22 12:34:07;;;;;;;2.88;1.30;;;10.70;99.90;;;;;;4774535;30;20056;-85
2023/03/22 12:36:49;;;;;;;1.55;1.13;;;10.60;99.90;;;;;;4768007;30;20050;-86
2023/03/22 12:39:18;;;;;;;2.17;1.20;;;10.70;99.90;;;;;;4763623;30;20052;-91
2023/03/22 12:41:48;;;;;;;2.80;1.33;;;10.70;99.90;;;;;;4779128;30;20048;-86
2023/03/22 12:44:20;;;;;;;3.40;1.55;;;10.70;99.90;;;;;;4779257;30;20502;-86
2023/03/22 12:46:54;;;;;;;8.38;1.30;;;10.80;99.90;;;;;;4773048;30;20060;-87
2023/03/22 12:49:44;;;;;;;6.13;1.20;;;10.80;99.90;;;;;;4770133;30;20414;-87
2023/03/22 12:52:16;;;;;;;2.75;1.17;;;10.70;99.90;;;;;;4769197;30;20063;-85
2023/03/22 12:54:43;;;;;;;4.88;1.55;;;10.70;99.90;;;;;;4772709;30;20518;-85
2023/03/22 12:57:10;;;;;;;3.60;1.10;;;10.70;99.90;;;;;;4772459;30;20044;-86
2023/03/22 12:59:36;;;;;;;5.35;1.30;;;10.60;99.90;;;;;;4763495;30;20049;-85
2023/03/22 13:02:18;;;;;;;5.13;1.25;;;10.60;99.90;;;;;;4772990;30;20126;-86
2023/03/22 13:04:44;;;;;;;1.75;1.10;;;10.60;99.90;;;;;;4771522;30;20054;-87
2023/03/22 13:07:12;;;;;;;4.22;1.45;;;10.50;99.90;;;;;;4781143;30;20406;-87
2023/03/22 13:09:42;;;;;;;5.22;1.23;;;10.40;99.90;;;;;;4765511;30;20049;-86